createdAt,value
2018-09-26T00:01:20.719Z,24.05
2018-09-26T00:02:21.304Z,24.08
2018-09-26T00:03:21.886Z,23.99
2018-09-26T00:07:19.420Z,23.98
2018-09-26T00:08:19.996Z,23.95
2018-09-26T00:09:20.621Z,23.95
2018-09-26T00:10:21.191Z,23.93
2018-09-26T00:11:21.767Z,23.95
2018-09-26T00:12:22.383Z,23.95
2018-09-26T00:13:23.009Z,23.95
2018-09-26T00:14:23.583Z,23.98
2018-09-26T00:15:24.157Z,23.92
2018-09-26T00:16:24.782Z,23.92
2018-09-26T00:17:25.355Z,23.92
2018-09-26T00:18:25.930Z,23.98
2018-09-26T00:19:27.208Z,23.91
2018-09-26T00:20:27.782Z,23.93
2018-09-26T00:22:12.747Z,23.92
2018-09-26T00:23:13.321Z,23.91
2018-09-26T00:24:13.899Z,23.87
2018-09-26T00:25:14.474Z,23.96
2018-09-26T00:26:15.102Z,23.98
2018-09-26T00:27:15.720Z,23.95
2018-09-26T00:28:16.294Z,23.92
2018-09-26T00:29:16.920Z,23.93
2018-09-26T00:30:17.500Z,23.95
2018-09-26T00:31:18.115Z,23.91
2018-09-26T00:32:18.690Z,23.91
2018-09-26T00:33:19.263Z,23.87
2018-09-26T00:34:19.889Z,23.84
2018-09-26T00:35:20.470Z,23.95
2018-09-26T00:37:05.391Z,23.96
2018-09-26T00:38:06.009Z,23.95
2018-09-26T00:39:06.586Z,23.84
2018-09-26T00:40:07.164Z,23.87
2018-09-26T00:41:07.742Z,23.84
2018-09-26T00:42:08.319Z,23.84
2018-09-26T00:43:08.890Z,23.84
2018-09-26T00:44:09.517Z,23.83
2018-09-26T00:45:10.093Z,23.88
2018-09-26T00:46:10.670Z,23.88
2018-09-26T00:47:11.295Z,23.84
2018-09-26T00:48:11.868Z,23.86
2018-09-26T00:49:12.494Z,23.88
2018-09-26T00:50:13.069Z,23.91
2018-09-26T00:51:57.997Z,23.92
2018-09-26T00:52:58.571Z,23.91
2018-09-26T00:53:59.150Z,23.80
2018-09-26T00:54:59.726Z,23.76
2018-09-26T00:56:00.303Z,23.83
2018-09-26T00:57:01.079Z,23.83
2018-09-26T00:58:01.954Z,23.73
2018-09-26T00:59:02.528Z,23.81
2018-09-26T01:00:03.106Z,23.81
2018-09-26T01:01:03.681Z,23.77
2018-09-26T01:02:04.261Z,23.77
2018-09-26T01:03:04.834Z,23.71
2018-09-26T01:04:05.408Z,23.78
2018-09-26T01:05:06.033Z,23.78
2018-09-26T01:06:50.959Z,23.77
2018-09-26T01:07:51.536Z,23.78
2018-09-26T01:08:52.159Z,23.76
2018-09-26T01:09:52.780Z,23.74
2018-09-26T01:10:53.357Z,23.77
2018-09-26T01:11:53.934Z,23.71
2018-09-26T01:12:54.511Z,23.68
2018-09-26T01:13:55.238Z,23.80
2018-09-26T01:14:55.812Z,23.77
2018-09-26T01:15:56.389Z,23.76
2018-09-26T01:16:56.964Z,23.74
2018-09-26T01:17:57.541Z,23.73
2018-09-26T01:18:58.164Z,23.77
2018-09-26T01:19:58.742Z,23.71
2018-09-26T01:21:43.668Z,23.78
2018-09-26T01:22:44.244Z,23.68
2018-09-26T01:23:44.822Z,23.68
2018-09-26T01:24:45.398Z,23.71
2018-09-26T01:25:46.026Z,23.71
2018-09-26T01:26:46.602Z,23.71
2018-09-26T01:27:47.227Z,23.73
2018-09-26T01:28:47.804Z,23.71
2018-09-26T01:29:48.380Z,23.71
2018-09-26T01:30:48.957Z,23.78
2018-09-26T01:31:49.583Z,23.76
2018-09-26T01:32:50.159Z,23.71
2018-09-26T01:33:50.734Z,23.71
2018-09-26T01:34:51.310Z,23.71
2018-09-26T01:36:36.237Z,23.76
2018-09-26T01:37:36.815Z,23.62
2018-09-26T01:38:37.389Z,23.68
2018-09-26T01:39:37.967Z,23.73
2018-09-26T01:40:38.544Z,23.61
2018-09-26T01:41:39.119Z,23.61
2018-09-26T01:42:39.694Z,23.62
2018-09-26T01:43:40.272Z,23.65
2018-09-26T01:44:40.857Z,23.62
2018-09-26T01:45:41.422Z,23.62
2018-09-26T01:46:42.000Z,23.63
2018-09-26T01:47:42.625Z,23.63
2018-09-26T01:48:43.201Z,23.62
2018-09-26T01:49:43.780Z,23.69
2018-09-26T01:51:28.752Z,23.63
2018-09-26T01:52:29.327Z,23.63
2018-09-26T01:53:29.956Z,23.65
2018-09-26T01:54:30.530Z,23.65
2018-09-26T01:55:31.111Z,23.61
2018-09-26T01:56:31.683Z,23.59
2018-09-26T01:57:32.259Z,23.56
2018-09-26T01:58:32.835Z,23.65
2018-09-26T01:59:33.455Z,23.62
2018-09-26T02:00:34.032Z,23.59
2018-09-26T02:01:34.608Z,23.62
2018-09-26T02:02:35.181Z,23.58
2018-09-26T02:03:35.759Z,23.61
2018-09-26T02:04:36.334Z,23.58
2018-09-26T02:06:21.308Z,23.56
2018-09-26T02:07:21.884Z,23.61
2018-09-26T02:08:22.460Z,23.56
2018-09-26T02:09:23.088Z,23.54
2018-09-26T02:10:23.667Z,23.56
2018-09-26T02:11:24.240Z,23.58
2018-09-26T02:12:24.815Z,23.58
2018-09-26T02:13:25.391Z,23.50
2018-09-26T02:14:25.967Z,23.54
2018-09-26T02:15:26.594Z,23.50
2018-09-26T02:16:27.174Z,23.47
2018-09-26T02:17:27.787Z,23.51
2018-09-26T02:18:28.363Z,23.46
2018-09-26T02:19:28.939Z,23.47
2018-09-26T02:21:13.866Z,23.51
2018-09-26T02:22:14.442Z,23.48
2018-09-26T02:23:15.019Z,23.43
2018-09-26T02:24:15.646Z,23.43
2018-09-26T02:25:16.223Z,23.47
2018-09-26T02:26:16.799Z,23.47
2018-09-26T02:27:17.374Z,23.47
2018-09-26T02:28:17.950Z,23.46
2018-09-26T02:29:18.576Z,23.48
2018-09-26T02:30:19.155Z,23.46
2018-09-26T02:31:19.729Z,23.55
2018-09-26T02:32:20.302Z,23.46
2018-09-26T02:33:20.880Z,23.48
2018-09-26T02:34:21.454Z,23.46
2018-09-26T02:36:06.431Z,23.44
2018-09-26T02:37:07.006Z,23.43
2018-09-26T02:38:07.585Z,23.44
2018-09-26T02:39:08.220Z,23.43
2018-09-26T02:40:08.821Z,23.44
2018-09-26T02:41:09.397Z,23.40
2018-09-26T02:42:09.974Z,23.41
2018-09-26T02:43:10.549Z,23.39
2018-09-26T02:44:11.128Z,23.40
2018-09-26T02:45:11.759Z,23.37
2018-09-26T02:46:12.329Z,23.44
2018-09-26T02:47:12.900Z,23.39
2018-09-26T02:48:13.476Z,23.43
2018-09-26T02:49:14.052Z,23.40
2018-09-26T02:50:58.976Z,23.40
2018-09-26T02:51:59.552Z,23.41
2018-09-26T02:53:00.129Z,23.41
2018-09-26T02:54:00.770Z,23.43
2018-09-26T02:55:01.333Z,23.41
2018-09-26T02:56:01.909Z,23.40
2018-09-26T02:57:02.536Z,23.43
2018-09-26T02:58:03.113Z,23.43
2018-09-26T02:59:03.688Z,23.32
2018-09-26T03:00:04.263Z,23.31
2018-09-26T03:01:04.845Z,23.36
2018-09-26T03:02:05.455Z,23.40
2018-09-26T03:03:06.032Z,23.40
2018-09-26T03:04:06.607Z,23.31
2018-09-26T03:05:51.534Z,23.36
2018-09-26T03:06:52.152Z,23.32
2018-09-26T03:07:52.729Z,23.36
2018-09-26T03:08:53.306Z,23.37
2018-09-26T03:09:53.930Z,23.37
2018-09-26T03:10:54.570Z,23.32
2018-09-26T03:11:55.081Z,23.36
2018-09-26T03:12:55.808Z,23.27
2018-09-26T03:13:56.386Z,23.31
2018-09-26T03:14:57.012Z,23.31
2018-09-26T03:15:57.590Z,23.31
2018-09-26T03:16:58.164Z,23.32
2018-09-26T03:17:58.740Z,23.32
2018-09-26T03:18:59.317Z,23.41
2018-09-26T03:20:44.243Z,23.36
2018-09-26T03:21:44.818Z,23.31
2018-09-26T03:22:45.395Z,23.31
2018-09-26T03:23:45.975Z,23.37
2018-09-26T03:24:46.550Z,23.36
2018-09-26T03:25:47.125Z,23.34
2018-09-26T03:26:47.699Z,23.39
2018-09-26T03:27:48.277Z,23.39
2018-09-26T03:28:48.902Z,23.37
2018-09-26T03:29:49.482Z,23.39
2018-09-26T03:30:50.105Z,23.27
2018-09-26T03:31:50.678Z,23.31
2018-09-26T03:32:51.262Z,23.34
2018-09-26T03:33:51.936Z,23.28
2018-09-26T03:35:36.806Z,23.37
2018-09-26T03:36:37.381Z,23.32
2018-09-26T03:37:37.958Z,23.32
2018-09-26T03:38:38.534Z,23.32
2018-09-26T03:39:39.111Z,23.37
2018-09-26T03:40:39.684Z,23.23
2018-09-26T03:41:40.258Z,23.25
2018-09-26T03:42:40.835Z,23.25
2018-09-26T03:43:41.412Z,23.25
2018-09-26T03:44:42.029Z,23.21
2018-09-26T03:45:42.605Z,23.21
2018-09-26T03:46:43.230Z,23.32
2018-09-26T03:47:43.858Z,23.23
2018-09-26T03:48:44.436Z,23.25
2018-09-26T03:50:29.408Z,23.39
2018-09-26T03:51:29.976Z,23.24
2018-09-26T03:52:30.557Z,23.27
2018-09-26T03:53:31.132Z,23.23
2018-09-26T03:54:31.707Z,23.23
2018-09-26T03:55:32.283Z,23.24
2018-09-26T03:56:32.857Z,23.24
2018-09-26T03:57:33.438Z,23.23
2018-09-26T03:58:34.062Z,23.21
2018-09-26T03:59:34.679Z,23.24
2018-09-26T04:00:35.255Z,23.25
2018-09-26T04:01:35.828Z,23.23
2018-09-26T04:02:36.404Z,23.23
2018-09-26T04:03:36.981Z,23.25
2018-09-26T04:05:21.906Z,23.18
2018-09-26T04:06:22.531Z,23.17
2018-09-26T04:07:23.105Z,23.18
2018-09-26T04:08:23.681Z,23.20
2018-09-26T04:09:24.258Z,23.23
2018-09-26T04:10:24.884Z,23.20
2018-09-26T04:11:25.462Z,23.21
2018-09-26T04:12:26.053Z,23.17
2018-09-26T04:13:26.610Z,23.20
2018-09-26T04:14:27.241Z,23.17
2018-09-26T04:15:27.825Z,23.18
2018-09-26T04:16:28.432Z,23.13
2018-09-26T04:17:29.007Z,23.18
2018-09-26T04:18:29.586Z,23.17
2018-09-26T04:20:14.580Z,23.21
2018-09-26T04:21:15.153Z,23.21
2018-09-26T04:22:15.697Z,23.20
2018-09-26T04:23:16.273Z,23.17
2018-09-26T04:24:16.898Z,23.23
2018-09-26T04:25:17.474Z,23.13
2018-09-26T04:26:18.157Z,23.17
2018-09-26T04:27:18.816Z,23.10
2018-09-26T04:28:19.283Z,23.05
2018-09-26T04:29:19.895Z,23.15
2018-09-26T04:30:20.577Z,23.15
2018-09-26T04:31:21.152Z,23.15
2018-09-26T04:32:21.731Z,23.09
2018-09-26T04:33:22.458Z,23.08
2018-09-26T04:35:07.284Z,23.18
2018-09-26T04:36:07.863Z,23.15
2018-09-26T04:37:08.438Z,23.18
2018-09-26T04:38:09.013Z,23.17
2018-09-26T04:39:09.589Z,23.06
2018-09-26T04:40:10.166Z,23.08
2018-09-26T04:41:10.743Z,23.12
2018-09-26T04:42:11.316Z,23.10
2018-09-26T04:43:11.938Z,23.13
2018-09-26T04:44:12.469Z,23.12
2018-09-26T04:45:13.195Z,23.12
2018-09-26T04:46:13.768Z,23.13
2018-09-26T04:47:14.392Z,23.08
2018-09-26T04:48:14.968Z,23.08
2018-09-26T04:49:59.894Z,23.17
2018-09-26T04:51:00.469Z,23.10
2018-09-26T04:52:01.046Z,23.20
2018-09-26T04:53:01.624Z,23.05
2018-09-26T04:54:02.250Z,23.06
2018-09-26T04:55:02.827Z,23.10
2018-09-26T04:56:03.401Z,23.13
2018-09-26T04:57:03.977Z,23.09
2018-09-26T04:58:04.592Z,23.03
2018-09-26T04:59:05.128Z,23.17
2018-09-26T05:00:05.704Z,23.03
2018-09-26T05:01:06.276Z,23.08
2018-09-26T05:02:06.853Z,23.02
2018-09-26T05:03:07.478Z,23.05
2018-09-26T05:04:52.402Z,23.08
2018-09-26T05:05:53.028Z,23.05
2018-09-26T05:06:53.603Z,23.02
2018-09-26T05:07:54.178Z,23.00
2018-09-26T05:08:54.758Z,23.00
2018-09-26T05:09:55.332Z,23.03
2018-09-26T05:10:55.905Z,23.03
2018-09-26T05:11:56.482Z,23.09
2018-09-26T05:12:57.057Z,23.02
2018-09-26T05:13:57.691Z,23.06
2018-09-26T05:14:58.264Z,22.99
2018-09-26T05:15:58.836Z,23.05
2018-09-26T05:16:59.412Z,23.08
2018-09-26T05:17:59.987Z,23.00
2018-09-26T05:19:44.913Z,23.06
2018-09-26T05:20:45.488Z,23.10
2018-09-26T05:21:46.065Z,23.12
2018-09-26T05:22:46.704Z,23.05
2018-09-26T05:23:47.306Z,23.02
2018-09-26T05:24:47.928Z,23.00
2018-09-26T05:25:48.503Z,23.03
2018-09-26T05:26:49.079Z,23.03
2018-09-26T05:27:49.654Z,23.06
2018-09-26T05:28:50.232Z,23.08
2018-09-26T05:29:50.804Z,23.05
2018-09-26T05:30:51.476Z,23.00
2018-09-26T05:31:52.101Z,23.00
2018-09-26T05:32:52.676Z,23.08
2018-09-26T05:34:37.604Z,23.02
2018-09-26T05:35:38.179Z,23.06
2018-09-26T05:36:38.756Z,23.03
2018-09-26T05:37:39.331Z,23.06
2018-09-26T05:38:39.906Z,22.99
2018-09-26T05:39:40.480Z,22.98
2018-09-26T05:40:41.055Z,22.93
2018-09-26T05:41:41.639Z,22.96
2018-09-26T05:42:42.207Z,23.00
2018-09-26T05:43:42.787Z,23.05
2018-09-26T05:44:43.358Z,22.94
2018-09-26T05:45:43.933Z,22.94
2018-09-26T05:46:44.557Z,22.98
2018-09-26T05:47:45.134Z,22.96
2018-09-26T05:49:35.155Z,22.98
2018-09-26T05:50:35.726Z,22.96
2018-09-26T05:51:36.303Z,22.94
2018-09-26T05:52:36.929Z,22.88
2018-09-26T05:53:37.612Z,22.88
2018-09-26T05:54:38.119Z,22.91
2018-09-26T05:55:38.694Z,22.87
2018-09-26T05:56:39.270Z,22.85
2018-09-26T05:57:39.846Z,22.93
2018-09-26T05:58:40.420Z,22.91
2018-09-26T05:59:41.043Z,22.90
2018-09-26T06:00:41.569Z,22.93
2018-09-26T06:01:42.144Z,22.90
2018-09-26T06:02:42.720Z,22.88
2018-09-26T06:04:27.694Z,22.91
2018-09-26T06:05:28.305Z,22.93
2018-09-26T06:06:28.848Z,22.96
2018-09-26T06:07:29.516Z,22.85
2018-09-26T06:08:30.136Z,22.88
2018-09-26T06:09:30.709Z,22.91
2018-09-26T06:10:31.284Z,22.93
2018-09-26T06:11:31.861Z,22.88
2018-09-26T06:12:32.435Z,22.85
2018-09-26T06:13:33.014Z,22.88
2018-09-26T06:14:33.640Z,22.85
2018-09-26T06:15:34.254Z,22.85
2018-09-26T06:16:34.832Z,22.85
2018-09-26T06:17:35.404Z,22.90
2018-09-26T06:19:20.481Z,22.88
2018-09-26T06:20:21.055Z,22.83
2018-09-26T06:21:21.680Z,22.87
2018-09-26T06:22:22.257Z,22.83
2018-09-26T06:23:22.835Z,22.87
2018-09-26T06:24:23.452Z,22.87
2018-09-26T06:25:24.051Z,22.83
2018-09-26T06:26:24.650Z,22.87
2018-09-26T06:27:25.276Z,22.88
2018-09-26T06:28:25.851Z,22.88
2018-09-26T06:29:26.428Z,22.85
2018-09-26T06:30:27.051Z,22.90
2018-09-26T06:31:27.628Z,22.84
2018-09-26T06:32:28.204Z,22.85
2018-09-26T06:34:13.128Z,22.83
2018-09-26T06:35:13.703Z,22.84
2018-09-26T06:36:14.278Z,22.84
2018-09-26T06:37:14.855Z,22.81
2018-09-26T06:38:15.429Z,22.83
2018-09-26T06:39:16.054Z,22.85
2018-09-26T06:40:16.640Z,22.85
2018-09-26T06:41:17.207Z,22.81
2018-09-26T06:42:17.780Z,22.83
2018-09-26T06:43:18.356Z,22.84
2018-09-26T06:44:18.933Z,22.80
2018-09-26T06:45:19.504Z,22.80
2018-09-26T06:46:20.081Z,22.85
2018-09-26T06:47:20.684Z,22.84
2018-09-26T06:49:05.629Z,22.88
2018-09-26T06:50:06.203Z,22.85
2018-09-26T06:51:06.830Z,22.78
2018-09-26T06:52:07.404Z,22.81
2018-09-26T06:53:07.985Z,22.83
2018-09-26T06:54:08.568Z,22.81
2018-09-26T06:55:09.132Z,22.78
2018-09-26T06:56:09.708Z,22.85
2018-09-26T06:57:10.335Z,22.83
2018-09-26T06:58:10.912Z,22.78
2018-09-26T06:59:11.484Z,22.76
2018-09-26T07:00:12.113Z,22.81
2018-09-26T07:01:12.633Z,22.80
2018-09-26T07:02:13.208Z,22.83
2018-09-26T07:03:58.132Z,22.84
2018-09-26T07:04:58.707Z,22.76
2018-09-26T07:05:59.284Z,22.78
2018-09-26T07:06:59.911Z,22.80
2018-09-26T07:08:00.512Z,22.78
2018-09-26T07:09:01.062Z,22.80
2018-09-26T07:10:01.637Z,22.78
2018-09-26T07:11:02.213Z,22.80
2018-09-26T07:12:02.847Z,22.80
2018-09-26T07:13:03.365Z,22.78
2018-09-26T07:14:03.991Z,22.80
2018-09-26T07:15:04.563Z,22.80
2018-09-26T07:16:05.138Z,22.78
2018-09-26T07:17:05.713Z,22.70
2018-09-26T07:18:50.689Z,22.78
2018-09-26T07:19:51.265Z,22.75
2018-09-26T07:20:51.840Z,22.80
2018-09-26T07:21:52.414Z,22.85
2018-09-26T07:22:52.992Z,22.75
2018-09-26T07:23:53.601Z,22.73
2018-09-26T07:24:54.144Z,22.85
2018-09-26T07:25:54.773Z,22.83
2018-09-26T07:26:55.343Z,22.78
2018-09-26T07:27:55.922Z,22.78
2018-09-26T07:28:56.495Z,22.80
2018-09-26T07:29:57.068Z,22.78
2018-09-26T07:30:57.643Z,22.78
2018-09-26T07:31:58.220Z,22.78
2018-09-26T07:33:43.143Z,22.85
2018-09-26T07:34:43.719Z,22.84
2018-09-26T07:35:44.294Z,22.83
2018-09-26T07:36:44.869Z,22.84
2018-09-26T07:37:45.493Z,22.85
2018-09-26T07:38:46.119Z,22.85
2018-09-26T07:39:46.695Z,22.83
2018-09-26T07:40:47.272Z,22.85
2018-09-26T07:41:47.844Z,22.85
2018-09-26T07:42:48.422Z,22.87
2018-09-26T07:43:48.998Z,22.84
2018-09-26T07:44:49.572Z,22.88
2018-09-26T07:45:50.252Z,22.84
2018-09-26T07:46:50.811Z,22.84
2018-09-26T07:48:35.738Z,22.87
2018-09-26T07:49:36.312Z,22.91
2018-09-26T07:50:36.888Z,22.84
2018-09-26T07:51:37.465Z,22.84
2018-09-26T07:52:38.039Z,22.87
2018-09-26T07:53:38.663Z,22.83
2018-09-26T07:54:39.238Z,22.94
2018-09-26T07:55:39.815Z,22.87
2018-09-26T07:56:40.391Z,22.91
2018-09-26T07:57:41.016Z,22.93
2018-09-26T07:58:41.590Z,22.87
2018-09-26T07:59:42.163Z,22.88
2018-09-26T08:00:42.740Z,22.91
2018-09-26T08:01:43.315Z,22.88
2018-09-26T08:03:28.241Z,22.90
2018-09-26T08:04:28.814Z,22.85
2018-09-26T08:05:29.441Z,22.85
2018-09-26T08:06:30.016Z,23.00
2018-09-26T08:07:30.594Z,22.91
2018-09-26T08:08:31.176Z,22.87
2018-09-26T08:09:31.742Z,22.87
2018-09-26T08:10:32.318Z,22.91
2018-09-26T08:11:32.946Z,22.98
2018-09-26T08:12:33.472Z,22.93
2018-09-26T08:13:34.097Z,22.99
2018-09-26T08:14:34.669Z,23.00
2018-09-26T08:15:35.248Z,22.94
2018-09-26T08:16:35.970Z,22.94
2018-09-26T08:18:21.214Z,23.05
2018-09-26T08:19:21.622Z,23.06
2018-09-26T08:20:22.197Z,22.94
2018-09-26T08:21:22.773Z,23.00
2018-09-26T08:22:23.349Z,23.05
2018-09-26T08:23:23.973Z,23.12
2018-09-26T08:24:24.548Z,23.12
2018-09-26T08:25:25.124Z,22.98
2018-09-26T08:26:25.701Z,23.06
2018-09-26T08:27:26.276Z,23.08
2018-09-26T08:28:27.153Z,23.03
2018-09-26T08:29:27.728Z,22.98
2018-09-26T08:30:28.302Z,23.00
2018-09-26T08:31:28.882Z,23.03
2018-09-26T08:33:13.854Z,22.99
2018-09-26T08:34:14.482Z,23.08
2018-09-26T08:35:15.057Z,23.10
2018-09-26T08:36:15.630Z,23.06
2018-09-26T08:37:16.206Z,22.98
2018-09-26T08:38:16.781Z,23.08
2018-09-26T08:39:17.358Z,23.08
2018-09-26T08:40:17.933Z,23.03
2018-09-26T08:41:18.507Z,23.05
2018-09-26T08:42:19.088Z,23.06
2018-09-26T08:43:19.664Z,23.09
2018-09-26T08:44:20.238Z,23.05
2018-09-26T08:45:20.863Z,23.08
2018-09-26T08:46:21.439Z,23.06
2018-09-26T08:48:06.365Z,23.10
2018-09-26T08:49:06.941Z,23.06
2018-09-26T08:50:07.566Z,23.18
2018-09-26T08:51:08.141Z,23.21
2018-09-26T08:52:08.720Z,23.18
2018-09-26T08:53:09.301Z,23.12
2018-09-26T08:54:09.964Z,23.17
2018-09-26T08:55:10.592Z,23.18
2018-09-26T08:56:11.169Z,23.17
2018-09-26T08:57:11.747Z,23.18
2018-09-26T08:58:12.322Z,23.15
2018-09-26T08:59:12.897Z,23.15
2018-09-26T09:00:13.525Z,23.17
2018-09-26T09:01:14.102Z,23.15
2018-09-26T09:02:59.028Z,23.23
2018-09-26T09:03:59.605Z,23.12
2018-09-26T09:05:00.182Z,23.25
2018-09-26T09:06:00.854Z,23.21
2018-09-26T09:07:01.437Z,23.27
2018-09-26T09:08:02.013Z,23.24
2018-09-26T09:09:02.590Z,23.27
2018-09-26T09:10:03.167Z,23.32
2018-09-26T09:11:03.745Z,23.23
2018-09-26T09:12:04.321Z,23.32
2018-09-26T09:13:04.900Z,23.32
2018-09-26T09:14:05.520Z,23.34
2018-09-26T09:15:06.093Z,23.37
2018-09-26T09:16:06.670Z,23.34
2018-09-26T09:17:51.730Z,23.39
2018-09-26T09:18:52.263Z,23.34
2018-09-26T09:19:52.840Z,23.32
2018-09-26T09:20:53.417Z,23.37
2018-09-26T09:21:53.994Z,23.39
2018-09-26T09:22:54.623Z,23.43
2018-09-26T09:23:55.241Z,23.44
2018-09-26T09:24:55.868Z,23.40
2018-09-26T09:25:56.443Z,23.43
2018-09-26T09:26:57.020Z,23.46
2018-09-26T09:27:57.596Z,23.46
2018-09-26T09:28:58.171Z,23.48
2018-09-26T09:29:58.749Z,23.48
2018-09-26T09:30:59.324Z,23.54
2018-09-26T09:32:44.253Z,23.47
2018-09-26T09:33:44.831Z,23.51
2018-09-26T09:34:45.406Z,23.51
2018-09-26T09:35:45.982Z,23.56
2018-09-26T09:36:46.560Z,23.54
2018-09-26T09:37:47.187Z,23.51
2018-09-26T09:38:47.764Z,23.58
2018-09-26T09:39:48.340Z,23.55
2018-09-26T09:40:48.966Z,23.50
2018-09-26T09:41:49.542Z,23.56
2018-09-26T09:42:50.169Z,23.56
2018-09-26T09:43:50.814Z,23.55
2018-09-26T09:44:51.371Z,23.58
2018-09-26T09:45:51.949Z,23.55
2018-09-26T09:47:36.879Z,23.66
2018-09-26T09:48:37.451Z,23.63
2018-09-26T09:49:38.029Z,23.68
2018-09-26T09:50:38.609Z,23.59
2018-09-26T09:51:39.195Z,23.62
2018-09-26T09:52:39.760Z,23.69
2018-09-26T09:53:40.338Z,23.69
2018-09-26T09:54:40.915Z,23.69
2018-09-26T09:55:41.500Z,23.65
2018-09-26T09:56:42.164Z,23.77
2018-09-26T09:57:42.740Z,23.74
2018-09-26T09:58:43.323Z,23.71
2018-09-26T09:59:43.947Z,23.73
2018-09-26T10:00:44.570Z,23.66
2018-09-26T10:02:29.614Z,23.74
2018-09-26T10:03:30.122Z,23.71
2018-09-26T10:04:30.700Z,23.83
2018-09-26T10:05:31.277Z,23.76
2018-09-26T10:06:31.854Z,23.73
2018-09-26T10:07:32.432Z,23.81
2018-09-26T10:08:33.018Z,23.71
2018-09-26T10:09:33.628Z,23.83
2018-09-26T10:10:34.205Z,23.81
2018-09-26T10:11:34.783Z,23.80
2018-09-26T10:12:35.361Z,23.84
2018-09-26T10:13:35.935Z,23.81
2018-09-26T10:14:36.514Z,23.88
2018-09-26T10:15:37.091Z,23.84
2018-09-26T10:17:22.022Z,23.88
2018-09-26T10:18:22.596Z,23.88
2018-09-26T10:19:23.173Z,23.87
2018-09-26T10:20:23.829Z,23.96
2018-09-26T10:21:24.429Z,24.01
2018-09-26T10:22:25.048Z,23.93
2018-09-26T10:23:25.629Z,23.93
2018-09-26T10:24:26.205Z,23.95
2018-09-26T10:25:26.784Z,23.91
2018-09-26T10:26:27.360Z,23.84
2018-09-26T10:27:27.937Z,23.88
2018-09-26T10:28:28.513Z,23.92
2018-09-26T10:29:29.140Z,23.96
2018-09-26T10:30:29.718Z,23.93
2018-09-26T10:32:14.678Z,23.93
2018-09-26T10:33:15.222Z,23.96
2018-09-26T10:34:15.800Z,23.96
2018-09-26T10:35:16.377Z,23.99
2018-09-26T10:36:16.956Z,24.02
2018-09-26T10:37:17.791Z,23.96
2018-09-26T10:38:18.623Z,24.03
2018-09-26T10:39:19.130Z,24.03
2018-09-26T10:40:19.709Z,24.05
2018-09-26T10:41:20.284Z,24.13
2018-09-26T10:42:21.063Z,24.10
2018-09-26T10:43:21.691Z,24.05
2018-09-26T10:44:22.340Z,24.10
2018-09-26T10:45:22.879Z,24.11
2018-09-26T10:47:07.809Z,24.13
2018-09-26T10:48:08.385Z,24.10
2018-09-26T10:49:08.962Z,24.17
2018-09-26T10:50:09.577Z,24.21
2018-09-26T10:51:10.269Z,24.17
2018-09-26T10:52:10.849Z,24.13
2018-09-26T10:53:11.425Z,24.23
2018-09-26T10:54:12.003Z,24.29
2018-09-26T10:55:12.582Z,24.29
2018-09-26T10:56:13.229Z,24.21
2018-09-26T10:57:13.787Z,24.28
2018-09-26T10:58:14.363Z,24.30
2018-09-26T10:59:14.941Z,24.29
2018-09-26T11:00:15.561Z,24.29
2018-09-26T11:02:00.516Z,24.28
2018-09-26T11:03:01.113Z,24.24
2018-09-26T11:04:01.690Z,24.29
2018-09-26T11:05:02.270Z,24.24
2018-09-26T11:06:02.847Z,24.36
2018-09-26T11:07:03.425Z,24.43
2018-09-26T11:08:04.108Z,24.38
2018-09-26T11:09:04.668Z,24.42
2018-09-26T11:10:05.264Z,24.40
2018-09-26T11:11:05.823Z,24.38
2018-09-26T11:12:06.400Z,24.40
2018-09-26T11:13:07.028Z,24.43
2018-09-26T11:14:07.618Z,24.39
2018-09-26T11:15:08.250Z,24.40
2018-09-26T11:16:53.205Z,24.48
2018-09-26T11:17:53.784Z,24.42
2018-09-26T11:18:54.374Z,24.50
2018-09-26T11:19:54.937Z,24.36
2018-09-26T11:20:55.515Z,24.53
2018-09-26T11:21:56.093Z,24.42
2018-09-26T11:22:56.673Z,24.54
2018-09-26T11:23:57.248Z,24.58
2018-09-26T11:24:57.825Z,24.68
2018-09-26T11:25:58.445Z,24.74
2018-09-26T11:26:59.031Z,24.77
2018-09-26T11:27:59.609Z,24.84
2018-09-26T11:29:00.228Z,24.86
2018-09-26T11:30:00.855Z,24.92
2018-09-26T11:31:45.983Z,24.91
2018-09-26T11:32:46.562Z,24.88
2018-09-26T11:33:47.416Z,24.93
2018-09-26T11:34:47.858Z,24.93
2018-09-26T11:35:48.435Z,25.01
2018-09-26T11:36:49.013Z,25.06
2018-09-26T11:37:49.591Z,24.96
2018-09-26T11:38:50.170Z,25.06
2018-09-26T11:39:50.789Z,25.07
2018-09-26T11:40:51.415Z,24.98
2018-09-26T11:41:52.045Z,25.03
2018-09-26T11:42:52.620Z,25.11
2018-09-26T11:43:53.199Z,25.14
2018-09-26T11:44:53.801Z,25.17
2018-09-26T11:46:38.777Z,25.18
2018-09-26T11:47:39.504Z,25.14
2018-09-26T11:48:40.082Z,25.13
2018-09-26T11:49:40.666Z,25.17
2018-09-26T11:50:41.332Z,25.14
2018-09-26T11:51:41.960Z,25.22
2018-09-26T11:52:42.539Z,25.25
2018-09-26T11:53:43.118Z,25.23
2018-09-26T11:54:43.726Z,25.18
2018-09-26T11:55:44.338Z,25.16
2018-09-26T11:56:44.901Z,25.16
2018-09-26T11:57:45.477Z,25.14
2018-09-26T11:58:46.054Z,25.17
2018-09-26T11:59:46.632Z,25.17
2018-09-26T12:01:31.611Z,25.07
2018-09-26T12:02:32.393Z,25.17
2018-09-26T12:03:32.768Z,25.06
2018-09-26T12:04:33.344Z,25.08
2018-09-26T12:05:33.922Z,24.99
2018-09-26T12:06:34.550Z,24.99
2018-09-26T12:07:35.228Z,24.95
2018-09-26T12:08:35.757Z,24.99
2018-09-26T12:09:36.386Z,24.98
2018-09-26T12:10:36.964Z,24.99
2018-09-26T12:11:37.575Z,24.98
2018-09-26T12:12:38.173Z,25.10
2018-09-26T12:13:38.752Z,24.99
2018-09-26T12:14:39.333Z,25.16
2018-09-26T12:16:24.357Z,25.03
2018-09-26T12:17:24.873Z,25.03
2018-09-26T12:18:25.504Z,25.14
2018-09-26T12:19:26.132Z,25.13
2018-09-26T12:20:26.648Z,25.03
2018-09-26T12:21:30.539Z,25.11
2018-09-26T12:22:27.855Z,25.10
2018-09-26T12:23:28.383Z,25.07
2018-09-26T12:24:29.011Z,25.07
2018-09-26T12:25:29.639Z,25.13
2018-09-26T12:26:30.217Z,25.01
2018-09-26T12:27:30.796Z,25.06
2018-09-26T12:28:31.524Z,25.06
2018-09-26T12:29:32.102Z,24.99
2018-09-26T12:31:17.030Z,25.01
2018-09-26T12:32:17.607Z,25.03
2018-09-26T12:33:18.186Z,24.98
2018-09-26T12:34:18.782Z,24.96
2018-09-26T12:35:19.367Z,24.99
2018-09-26T12:36:20.030Z,24.93
2018-09-26T12:37:20.541Z,24.88
2018-09-26T12:38:21.120Z,24.96
2018-09-26T12:39:21.697Z,24.89
2018-09-26T12:40:22.412Z,24.91
2018-09-26T12:41:22.957Z,24.95
2018-09-26T12:42:23.559Z,24.91
2018-09-26T12:43:24.110Z,24.91
2018-09-26T12:44:24.689Z,24.88
2018-09-26T12:46:09.655Z,24.91
2018-09-26T12:47:10.213Z,24.88
2018-09-26T12:48:10.946Z,24.91
2018-09-26T12:49:11.441Z,24.91
2018-09-26T12:50:12.021Z,24.86
2018-09-26T12:51:12.600Z,24.85
2018-09-26T12:52:13.270Z,24.84
2018-09-26T12:53:13.801Z,24.85
2018-09-26T12:54:14.378Z,24.81
2018-09-26T12:55:14.961Z,24.89
2018-09-26T12:56:15.538Z,24.86
2018-09-26T12:57:16.165Z,24.86
2018-09-26T12:58:16.809Z,24.81
2018-09-26T12:59:17.371Z,24.85
2018-09-26T13:01:02.297Z,24.80
2018-09-26T13:02:02.875Z,24.84
2018-09-26T13:03:03.455Z,24.85
2018-09-26T13:04:04.279Z,24.81
2018-09-26T13:05:04.895Z,24.85
2018-09-26T13:06:05.478Z,24.85
2018-09-26T13:07:06.094Z,24.85
2018-09-26T13:08:06.687Z,24.93
2018-09-26T13:09:07.250Z,24.89
2018-09-26T13:10:07.828Z,24.84
2018-09-26T13:11:08.404Z,24.91
2018-09-26T13:12:09.008Z,24.91
2018-09-26T13:13:09.558Z,24.81
2018-09-26T13:14:10.151Z,24.89
2018-09-26T13:15:55.066Z,24.93
2018-09-26T13:16:55.642Z,24.93
2018-09-26T13:17:56.220Z,24.96
2018-09-26T13:18:56.843Z,25.04
2018-09-26T13:19:57.431Z,24.98
2018-09-26T13:20:58.055Z,24.98
2018-09-26T13:21:58.635Z,25.03
2018-09-26T13:22:59.263Z,25.03
2018-09-26T13:23:59.843Z,25.10
2018-09-26T13:25:00.421Z,25.01
2018-09-26T13:26:01.000Z,25.01
2018-09-26T13:27:01.575Z,25.04
2018-09-26T13:28:02.152Z,25.08
2018-09-26T13:29:02.732Z,25.11
2018-09-26T13:30:47.661Z,25.08
2018-09-26T13:31:48.279Z,25.13
2018-09-26T13:32:48.858Z,25.13
2018-09-26T13:33:49.435Z,25.16
2018-09-26T13:34:50.014Z,25.11
2018-09-26T13:35:50.592Z,25.16
2018-09-26T13:36:51.169Z,25.25
2018-09-26T13:37:51.748Z,25.17
2018-09-26T13:38:52.532Z,25.16
2018-09-26T13:39:53.055Z,25.18
2018-09-26T13:40:53.632Z,25.21
2018-09-26T13:41:54.209Z,25.22
2018-09-26T13:42:54.837Z,25.28
2018-09-26T13:43:55.416Z,25.28